Catàleg de serveis del Meteocat
Campanya meteocatpedra

Dades de l'estació automàtica Benissanet

?
?
Resum diari 21:30 TU
Dades diàries de l'estació meteorològica
Temperatura mitjana 10.8 °C
Temperatura màxima 14.8 °C 15:44 TU
Temperatura mínima 8.0 °C 21:31 TU
Humitat relativa mitjana 81%
Precipitació acumulada 9.7 mm
Ratxa màxima del vent (10 m) 25.6 km/h - 289º 16:29 TU
Irradiació solar global 3.6 MJ/m2

El tram horari està expressat en Temps Universal (TU). Cal sumar una hora en horari d'hivern i dues en horari d'estiu per passar a l'hora oficial.

Benissanet

Metadades estació meteorol´gica
Municipi Benissanet
Comarca Ribera d'Ebre
Altitud 32 m
Data alta 14.07.1993
Estat actual Operativa
Dades de període
Període
TU
TM
°C
TX
°C
TN
°C
HRM
%
PPT
mm
VVM (10 m)
km/h
DVM (10 m)
graus
VVX (10 m)
km/h
RS
W/m2
00:00 - 00:30 12.6 12.8 12.2 59 0.0 14.8 280 23.4 0
00:30 - 01:00 11.8 12.2 11.3 63 0.0 9.4 290 19.8 0
01:00 - 01:30 10.8 11.3 10.2 68 0.0 6.8 287 15.1 0
01:30 - 02:00 11.6 11.8 11.3 65 0.0 10.1 282 20.2 0
02:00 - 02:30 11.4 11.6 11.4 66 0.0 8.3 287 15.1 0
02:30 - 03:00 10.4 11.4 9.8 73 0.0 4.3 41 10.1 0
03:00 - 03:30 10.2 10.9 9.7 73 0.0 4.3 18 8.6 0
03:30 - 04:00 9.9 10.5 9.6 77 0.0 3.6 357 7.9 0
04:00 - 04:30 9.5 9.6 9.5 78 0.0 4.7 335 7.2 0
04:30 - 05:00 9.6 9.7 9.5 78 0.0 3.6 320 6.8 0
05:00 - 05:30 9.5 9.8 9.1 83 0.0 0.4 155 3.2 0
05:30 - 06:00 8.9 9.1 8.8 91 0.2 1.4 56 4.3 0
06:00 - 06:30 8.7 8.8 8.6 95 0.3 2.2 27 5.4 0
06:30 - 07:00 8.6 8.6 8.6 98 0.4 2.5 3 4.3 0
07:00 - 07:30 8.7 8.7 8.6 98 0.8 1.8 313 4.3 4
07:30 - 08:00 8.7 8.7 8.7 99 1.0 2.2 336 5.4 10
08:00 - 08:30 8.8 8.9 8.7 99 1.8 1.4 332 4.7 18
08:30 - 09:00 9.0 9.2 8.9 99 1.7 1.8 340 4.7 36
09:00 - 09:30 9.2 9.3 9.2 100 2.3 2.2 58 5.8 31
09:30 - 10:00 9.3 9.5 9.2 100 0.8 2.9 69 5.8 63
10:00 - 10:30 9.8 9.9 9.5 99 0.4 3.6 102 9.0 153
10:30 - 11:00 10.1 10.3 9.9 96 0.0 5.4 101 9.0 142
11:00 - 11:30 10.2 10.4 10.1 95 0.0 3.2 73 5.8 67
11:30 - 12:00 10.7 10.9 10.4 94 0.0 5.0 107 9.7 135
12:00 - 12:30 11.2 11.3 11.0 92 0.0 4.3 101 8.3 100
12:30 - 13:00 11.3 11.6 11.1 90 0.0 2.9 88 6.1 90
13:00 - 13:30 11.8 11.9 11.6 88 0.0 3.2 59 6.8 135
13:30 - 14:00 12.3 12.6 11.9 84 0.0 6.5 80 10.8 251
14:00 - 14:30 13.1 13.5 12.7 80 0.0 6.1 63 11.9 270
14:30 - 15:00 13.0 13.6 12.8 82 0.0 3.2 71 8.6 151
15:00 - 15:30 13.9 14.3 13.6 77 0.0 5.4 64 15.8 185
15:30 - 16:00 14.4 14.8 14.0 72 0.0 3.6 212 16.6 130
16:00 - 16:30 14.5 14.8 14.1 61 0.0 15.8 280 25.6 46
16:30 - 17:00 13.6 14.2 12.9 63 0.0 13.0 275 22.3 2
17:00 - 17:30 13.1 13.5 12.7 62 0.0 6.1 289 13.7 0
17:30 - 18:00 12.7 13.2 12.1 64 0.0 4.0 146 7.6 0
18:00 - 18:30 12.3 13.3 11.7 66 0.0 2.9 295 10.1 0
18:30 - 19:00 12.0 12.6 11.7 66 0.0 5.0 11 10.1 0
19:00 - 19:30 11.6 12.1 11.1 70 0.0 6.1 34 11.5 0
19:30 - 20:00 11.2 12.0 10.0 72 0.0 6.1 72 13.3 0
20:00 - 20:30 9.4 10.2 8.6 81 0.0 5.0 336 9.7 0
20:30 - 21:00 8.9 9.3 8.2 82 0.0 9.0 341 13.3 0
21:00 - 21:30 8.6 9.1 8.0 83 0.0 8.6 328 11.9 0
21:30 - 22:00 8.2 8.4 8.0 85 0.0 5.8 357 12.2 0

Les dades en taronja només han passat un control de qualitat automàtic. Resta pendent la seva validació definitiva.